createdAt,value
2023-02-25T00:02:13.268Z,95444.75
2023-02-25T00:04:42.077Z,95447.31
2023-02-25T00:07:11.425Z,95455.63
2023-02-25T00:09:39.077Z,95471.63
2023-02-25T00:12:07.140Z,95478.28
2023-02-25T00:14:34.670Z,95476.16
2023-02-25T00:17:02.250Z,95488.06
2023-02-25T00:19:29.849Z,95487.91
2023-02-25T00:21:57.378Z,95482.19
2023-02-25T00:24:26.328Z,95498.81
2023-02-25T00:26:53.861Z,95492.31
2023-02-25T00:29:22.184Z,95489.91
2023-02-25T00:31:50.018Z,95493.16
2023-02-25T00:34:18.159Z,95483.84
2023-02-25T00:36:45.835Z,95494.94
2023-02-25T00:39:13.776Z,95495.91
2023-02-25T00:41:42.883Z,95496.25
2023-02-25T00:44:10.460Z,95494.78
2023-02-25T00:46:38.068Z,95492.34
2023-02-25T00:49:05.609Z,95499.69
2023-02-25T00:51:34.595Z,95507.81
2023-02-25T00:54:02.146Z,95494.13
2023-02-25T00:56:30.123Z,95494.78
2023-02-25T00:59:00.979Z,95490.66
2023-02-25T01:01:30.602Z,95477.47
2023-02-25T01:03:58.800Z,95477.13
2023-02-25T01:06:27.713Z,95474.34
2023-02-25T01:08:55.835Z,95477.13
2023-02-25T01:11:29.074Z,95473.41
2023-02-25T01:13:59.332Z,95490.00
2023-02-25T01:16:29.372Z,95483.66
2023-02-25T01:18:59.484Z,95489.34
2023-02-25T01:21:29.270Z,95486.91
2023-02-25T01:23:59.343Z,95487.56
2023-02-25T01:26:27.513Z,95507.13
2023-02-25T01:28:55.814Z,95508.94
2023-02-25T01:31:29.129Z,95502.53
2023-02-25T01:33:58.593Z,95500.13
2023-02-25T01:36:26.227Z,95484.44
2023-02-25T01:38:53.851Z,95495.69
2023-02-25T01:41:21.499Z,95506.63
2023-02-25T01:44:04.435Z,95518.06
2023-02-25T01:46:33.693Z,95508.81
2023-02-25T01:49:01.560Z,95514.06
2023-02-25T01:51:29.408Z,95500.56
2023-02-25T01:53:58.156Z,95513.44
2023-02-25T01:56:27.603Z,95512.31
2023-02-25T01:58:55.376Z,95507.28
2023-02-25T02:01:24.432Z,95514.78
2023-02-25T02:03:53.930Z,95519.66
2023-02-25T02:06:24.125Z,95512.47
2023-02-25T02:08:51.963Z,95514.09
2023-02-25T02:11:19.513Z,95511.16
2023-02-25T02:13:50.025Z,95517.16
2023-02-25T02:16:27.650Z,95524.16
2023-02-25T02:18:59.268Z,95530.03
2023-02-25T02:21:51.468Z,95540.44
2023-02-25T02:24:39.092Z,95539.25
2023-02-25T02:27:09.001Z,95528.34
2023-02-25T02:30:16.276Z,95529.16
2023-02-25T02:32:48.161Z,95530.63
2023-02-25T02:35:21.444Z,95535.66
2023-02-25T02:37:58.129Z,95529.16
2023-02-25T02:40:33.382Z,95544.66
2023-02-25T02:43:12.283Z,95548.91
2023-02-25T02:45:44.151Z,95549.25
2023-02-25T02:48:15.306Z,95537.69
2023-02-25T02:50:45.360Z,95546.97
2023-02-25T02:53:15.882Z,95544.06
2023-02-25T02:55:46.248Z,95549.28
2023-02-25T02:58:18.015Z,95534.94
2023-02-25T03:00:48.427Z,95541.97
2023-02-25T03:03:20.654Z,95539.38
2023-02-25T03:05:51.028Z,95544.25
2023-02-25T03:08:20.931Z,95549.94
2023-02-25T03:10:48.624Z,95538.53
2023-02-25T03:13:16.570Z,95541.97
2023-02-25T03:15:45.141Z,95544.72
2023-02-25T03:18:19.552Z,95549.94
2023-02-25T03:20:50.268Z,95548.31
2023-02-25T03:23:20.012Z,95545.69
2023-02-25T03:25:50.965Z,95546.50
2023-02-25T03:28:27.746Z,95551.88
2023-02-25T03:31:00.973Z,95537.22
2023-02-25T03:33:34.104Z,95546.16
2023-02-25T03:36:02.428Z,95544.41
2023-02-25T03:38:32.856Z,95538.72
2023-02-25T03:41:02.647Z,95553.00
2023-02-25T03:43:33.112Z,95539.81
2023-02-25T03:46:01.064Z,95554.81
2023-02-25T03:48:29.308Z,95553.50
2023-02-25T03:51:01.303Z,95549.91
2023-02-25T03:53:29.661Z,95556.09
2023-02-25T03:55:58.142Z,95549.38
2023-02-25T03:58:26.133Z,95567.63
2023-02-25T04:00:55.992Z,95559.31
2023-02-25T04:03:23.696Z,95571.69
2023-02-25T04:05:51.270Z,95581.41
2023-02-25T04:08:20.394Z,95592.94
2023-02-25T04:10:48.660Z,95584.97
2023-02-25T04:13:20.462Z,95590.63
2023-02-25T04:15:48.341Z,95594.63
2023-02-25T04:18:16.501Z,95595.22
2023-02-25T04:20:44.100Z,95595.53
2023-02-25T04:23:14.217Z,95598.75
2023-02-25T04:25:44.189Z,95609.84
2023-02-25T04:28:11.992Z,95605.50
2023-02-25T04:30:39.894Z,95595.41
2023-02-25T04:33:07.749Z,95591.06
2023-02-25T04:35:35.316Z,95593.34
2023-02-25T04:38:02.913Z,95592.50
2023-02-25T04:40:30.551Z,95597.56
2023-02-25T04:42:59.470Z,95599.63
2023-02-25T04:45:27.406Z,95596.69
2023-02-25T04:47:55.687Z,95597.00
2023-02-25T04:50:23.221Z,95602.56
2023-02-25T04:52:50.780Z,95597.50
2023-02-25T04:55:19.857Z,95592.47
2023-02-25T04:57:47.735Z,95598.63
2023-02-25T05:00:20.166Z,95594.94
2023-02-25T05:02:48.301Z,95610.88
2023-02-25T05:05:16.713Z,95609.47
2023-02-25T05:07:44.413Z,95613.47
2023-02-25T05:10:14.529Z,95609.72
2023-02-25T05:12:43.020Z,95603.22
2023-02-25T05:15:11.823Z,95605.53
2023-02-25T05:17:40.695Z,95621.50
2023-02-25T05:20:13.014Z,95611.09
2023-02-25T05:22:41.051Z,95611.28
2023-02-25T05:25:10.261Z,95605.75
2023-02-25T05:27:38.458Z,95615.72
2023-02-25T05:30:07.118Z,95613.09
2023-02-25T05:32:34.846Z,95602.69
2023-02-25T05:35:03.842Z,95612.97
2023-02-25T05:37:32.727Z,95608.75
2023-02-25T05:40:01.131Z,95609.72
2023-02-25T05:42:28.737Z,95605.47
2023-02-25T05:44:56.297Z,95610.69
2023-02-25T05:47:23.871Z,95610.69
2023-02-25T05:49:51.430Z,95615.59
2023-02-25T05:52:20.370Z,95620.16
2023-02-25T05:54:48.397Z,95624.88
2023-02-25T05:57:16.272Z,95622.25
2023-02-25T05:59:44.065Z,95620.03
2023-02-25T06:02:11.633Z,95630.13
2023-02-25T06:04:39.291Z,95617.56
2023-02-25T06:07:07.080Z,95631.75
2023-02-25T06:09:36.365Z,95630.78
2023-02-25T06:12:04.071Z,95621.31
2023-02-25T06:14:32.081Z,95633.06
2023-02-25T06:16:59.665Z,95637.44
2023-02-25T06:19:27.728Z,95622.97
2023-02-25T06:21:55.698Z,95641.22
2023-02-25T06:24:24.582Z,95645.59
2023-02-25T06:26:53.478Z,95643.16
2023-02-25T06:29:21.038Z,95645.44
2023-02-25T06:31:48.647Z,95644.47
2023-02-25T06:34:16.368Z,95656.53
2023-02-25T06:36:43.898Z,95655.06
2023-02-25T06:39:11.658Z,95662.06
2023-02-25T06:41:39.310Z,95668.59
2023-02-25T06:44:08.219Z,95670.22
2023-02-25T06:46:35.808Z,95672.84
2023-02-25T06:49:03.312Z,95680.50
2023-02-25T06:51:30.854Z,95681.31
2023-02-25T06:53:58.392Z,95678.56
2023-02-25T06:56:26.636Z,95676.75
2023-02-25T06:58:54.327Z,95674.00
2023-02-25T07:01:23.323Z,95673.69
2023-02-25T07:03:51.067Z,95675.28
2023-02-25T07:06:19.154Z,95674.00
2023-02-25T07:08:47.113Z,95668.44
2023-02-25T07:11:22.741Z,95691.59
2023-02-25T07:13:51.035Z,95697.94
2023-02-25T07:16:18.867Z,95700.88
2023-02-25T07:18:48.392Z,95696.81
2023-02-25T07:21:16.245Z,95717.03
2023-02-25T07:23:44.115Z,95708.38
2023-02-25T07:26:13.903Z,95704.78
2023-02-25T07:28:41.622Z,95704.00
2023-02-25T07:31:12.768Z,95707.06
2023-02-25T07:33:41.795Z,95699.56
2023-02-25T07:36:12.447Z,95696.50
2023-02-25T07:38:40.272Z,95697.16
2023-02-25T07:41:09.088Z,95699.91
2023-02-25T07:43:37.062Z,95701.25
2023-02-25T07:46:05.094Z,95695.84
2023-02-25T07:48:32.977Z,95701.06
2023-02-25T07:51:06.244Z,95696.63
2023-02-25T07:53:35.282Z,95703.16
2023-02-25T07:56:03.079Z,95694.22
2023-02-25T07:58:30.660Z,95687.88
2023-02-25T08:00:58.318Z,95686.06
2023-02-25T08:03:26.333Z,95691.31
2023-02-25T08:05:54.834Z,95686.25
2023-02-25T08:08:22.609Z,95695.41
2023-02-25T08:10:51.546Z,95699.16
2023-02-25T08:13:19.420Z,95689.69
2023-02-25T08:15:47.236Z,95691.63
2023-02-25T08:18:14.921Z,95695.56
2023-02-25T08:20:47.167Z,95698.84
2023-02-25T08:23:14.681Z,95696.69
2023-02-25T08:25:42.428Z,95689.84
2023-02-25T08:28:11.323Z,95703.22
2023-02-25T08:30:38.956Z,95698.47
2023-02-25T08:33:06.480Z,95705.78
2023-02-25T08:35:34.105Z,95705.44
2023-02-25T08:38:01.659Z,95713.78
2023-02-25T08:40:29.235Z,95709.72
2023-02-25T08:42:56.838Z,95719.19
2023-02-25T08:45:25.714Z,95717.25
2023-02-25T08:47:53.888Z,95716.28
2023-02-25T08:50:23.809Z,95714.47
2023-02-25T08:52:51.537Z,95720.13
2023-02-25T08:55:19.326Z,95719.69
2023-02-25T08:57:46.927Z,95715.59
2023-02-25T09:00:16.112Z,95715.59
2023-02-25T09:02:45.117Z,95707.72
2023-02-25T09:05:12.727Z,95709.41
2023-02-25T09:07:40.452Z,95708.09
2023-02-25T09:10:10.112Z,95704.16
2023-02-25T09:12:42.323Z,95696.81
2023-02-25T09:15:11.175Z,95698.69
2023-02-25T09:17:38.849Z,95699.25
2023-02-25T09:20:11.269Z,95703.00
2023-02-25T09:22:40.142Z,95700.22
2023-02-25T09:25:08.189Z,95701.09
2023-02-25T09:27:36.706Z,95708.22
2023-02-25T09:30:04.564Z,95712.59
2023-02-25T09:32:32.595Z,95704.38
2023-02-25T09:35:06.461Z,95715.28
2023-02-25T09:37:35.704Z,95715.13
2023-02-25T09:40:03.505Z,95710.22
2023-02-25T09:42:44.303Z,95714.94
2023-02-25T09:45:17.685Z,95706.00
2023-02-25T09:47:49.714Z,95706.09
2023-02-25T09:50:21.616Z,95720.75
2023-02-25T09:52:55.228Z,95720.63
2023-02-25T09:55:25.386Z,95724.06
2023-02-25T09:57:57.521Z,95731.06
2023-02-25T10:00:25.107Z,95729.59
2023-02-25T10:02:56.818Z,95733.53
2023-02-25T10:05:26.854Z,95723.41
2023-02-25T10:08:01.188Z,95731.34
2023-02-25T10:10:36.610Z,95726.59
2023-02-25T10:13:12.559Z,95724.31
2023-02-25T10:15:52.779Z,95722.25
2023-02-25T10:18:34.570Z,95730.56
2023-02-25T10:21:22.166Z,95720.75
2023-02-25T10:24:02.752Z,95736.84
2023-02-25T10:26:32.583Z,95714.97
2023-02-25T10:29:02.211Z,95720.06
2023-02-25T10:31:32.189Z,95711.50
2023-02-25T10:34:06.407Z,95717.44
2023-02-25T10:36:35.923Z,95716.28
2023-02-25T10:39:05.371Z,95717.72
2023-02-25T10:41:32.969Z,95706.88
2023-02-25T10:44:00.486Z,95714.94
2023-02-25T10:46:32.342Z,95727.22
2023-02-25T10:49:01.295Z,95715.94
2023-02-25T10:51:29.791Z,95710.06
2023-02-25T10:54:07.228Z,95719.00
2023-02-25T10:56:41.052Z,95709.63
2023-02-25T10:59:31.103Z,95708.44
2023-02-25T11:02:00.228Z,95705.28
2023-02-25T11:04:32.134Z,95705.81
2023-02-25T11:06:59.664Z,95702.09
2023-02-25T11:09:38.499Z,95706.28
2023-02-25T11:12:19.837Z,95700.41
2023-02-25T11:14:47.536Z,95686.72
2023-02-25T11:17:20.168Z,95684.41
2023-02-25T11:19:49.814Z,95690.91
2023-02-25T11:22:19.475Z,95696.63
2023-02-25T11:24:56.661Z,95683.31
2023-02-25T11:27:30.790Z,95674.34
2023-02-25T11:30:03.334Z,95697.63
2023-02-25T11:32:32.265Z,95679.25
2023-02-25T11:35:05.087Z,95690.44
2023-02-25T11:37:37.186Z,95670.25
2023-02-25T11:40:21.904Z,95671.09
2023-02-25T11:43:02.809Z,95677.41
2023-02-25T11:45:32.131Z,95669.88
2023-02-25T11:47:59.906Z,95659.44
2023-02-25T11:50:39.370Z,95651.34
2023-02-25T11:53:14.777Z,95640.13
2023-02-25T11:55:52.810Z,95655.44
2023-02-25T11:58:27.814Z,95655.06
2023-02-25T12:01:00.321Z,95645.63
2023-02-25T12:04:01.477Z,95649.19
2023-02-25T12:06:41.109Z,95658.69
2023-02-25T12:09:31.697Z,95665.41
2023-02-25T12:12:24.976Z,95669.53
2023-02-25T12:15:21.157Z,95675.06
2023-02-25T12:17:59.084Z,95677.13
2023-02-25T12:20:59.899Z,95678.31
2023-02-25T12:23:56.261Z,95699.75
2023-02-25T12:26:33.993Z,95712.19
2023-02-25T12:29:25.249Z,95737.44
2023-02-25T12:32:27.257Z,95722.50
2023-02-25T12:35:29.839Z,95727.63
2023-02-25T12:38:12.396Z,95719.19
2023-02-25T12:40:48.363Z,95722.28
2023-02-25T12:43:24.840Z,95705.72
2023-02-25T12:46:23.991Z,95694.72
2023-02-25T12:49:22.913Z,95699.81
2023-02-25T12:52:09.726Z,95686.09
2023-02-25T12:55:03.656Z,95691.66
2023-02-25T12:57:39.370Z,95697.00
2023-02-25T13:00:30.848Z,95690.16
2023-02-25T13:03:15.580Z,95702.56
2023-02-25T13:06:00.506Z,95704.22
2023-02-25T13:08:53.189Z,95719.41
2023-02-25T13:11:27.227Z,95720.19
2023-02-25T13:14:10.387Z,95714.63
2023-02-25T13:16:50.506Z,95710.34
2023-02-25T13:19:47.376Z,95713.13
2023-02-25T13:22:24.798Z,95717.88
2023-02-25T13:24:58.706Z,95708.75
2023-02-25T13:27:58.242Z,95710.91
2023-02-25T13:30:33.633Z,95721.81
2023-02-25T13:33:24.190Z,95731.72
2023-02-25T13:35:57.473Z,95718.41
2023-02-25T13:38:37.674Z,95716.25
2023-02-25T13:41:31.822Z,95712.81
2023-02-25T13:44:25.210Z,95721.09
2023-02-25T13:47:21.104Z,95705.47
2023-02-25T13:50:07.536Z,95713.78
2023-02-25T13:52:46.592Z,95725.50
2023-02-25T13:55:56.026Z,95725.72
2023-02-25T13:58:37.465Z,95722.13
2023-02-25T14:01:22.876Z,95711.84
2023-02-25T14:04:04.130Z,95726.19
2023-02-25T14:06:43.831Z,95729.25
2023-02-25T14:09:34.271Z,95748.75
2023-02-25T14:12:12.333Z,95748.28
2023-02-25T14:15:03.484Z,95765.56
2023-02-25T14:17:44.596Z,95782.44
2023-02-25T14:20:22.011Z,95793.00
2023-02-25T14:22:53.086Z,95795.44
2023-02-25T14:25:40.496Z,95803.50
2023-02-25T14:28:14.620Z,95800.25
2023-02-25T14:30:53.960Z,95796.38
2023-02-25T14:33:38.899Z,95796.56
2023-02-25T14:36:29.993Z,95809.81
2023-02-25T14:39:16.790Z,95799.91
2023-02-25T14:41:59.169Z,95809.59
2023-02-25T14:44:31.151Z,95814.50
2023-02-25T14:47:01.551Z,95808.84
2023-02-25T14:49:31.816Z,95816.25
2023-02-25T14:52:14.122Z,95810.31
2023-02-25T14:55:10.229Z,95806.44
2023-02-25T14:58:22.445Z,95805.34
2023-02-25T15:01:10.909Z,95818.59
2023-02-25T15:03:55.562Z,95822.06
2023-02-25T15:06:37.802Z,95824.97
2023-02-25T15:09:44.899Z,95810.38
2023-02-25T15:12:29.990Z,95833.09
2023-02-25T15:15:13.274Z,95830.16
2023-02-25T15:18:18.573Z,95832.97
2023-02-25T15:20:46.794Z,95834.34
2023-02-25T15:23:16.431Z,95834.91
2023-02-25T15:25:47.594Z,95831.19
2023-02-25T15:28:34.617Z,95825.19
2023-02-25T15:31:12.112Z,95835.75
2023-02-25T15:33:42.734Z,95825.63
2023-02-25T15:36:28.672Z,95832.47
2023-02-25T15:38:57.157Z,95829.25
2023-02-25T15:41:45.928Z,95829.19
2023-02-25T15:44:38.312Z,95835.63
2023-02-25T15:47:29.297Z,95832.28
2023-02-25T15:49:59.729Z,95843.50
2023-02-25T15:52:55.773Z,95845.78
2023-02-25T15:55:36.107Z,95841.78
2023-02-25T15:58:04.026Z,95825.34
2023-02-25T16:00:59.809Z,95838.34
2023-02-25T16:03:39.399Z,95838.22
2023-02-25T16:06:13.745Z,95845.78
2023-02-25T16:08:45.402Z,95843.66
2023-02-25T16:11:21.849Z,95841.41
2023-02-25T16:13:49.664Z,95856.06
2023-02-25T16:16:18.251Z,95857.66
2023-02-25T16:18:49.909Z,95862.63
2023-02-25T16:21:26.332Z,95863.13
2023-02-25T16:23:55.037Z,95875.94
2023-02-25T16:26:31.285Z,95879.03
2023-02-25T16:29:06.992Z,95884.69
2023-02-25T16:31:38.949Z,95891.97
2023-02-25T16:34:09.108Z,95893.91
2023-02-25T16:36:42.734Z,95888.19
2023-02-25T16:39:13.541Z,95890.31
2023-02-25T16:41:41.523Z,95889.94
2023-02-25T16:44:09.570Z,95900.34
2023-02-25T16:46:39.148Z,95890.84
2023-02-25T16:49:10.257Z,95886.94
2023-02-25T16:51:41.311Z,95895.78
2023-02-25T16:54:12.973Z,95901.94
2023-02-25T16:56:41.376Z,95897.19
2023-02-25T16:59:18.458Z,95902.41
2023-02-25T17:01:50.300Z,95913.47
2023-02-25T17:04:20.613Z,95912.13
2023-02-25T17:09:46.518Z,95924.97
2023-02-25T17:12:17.480Z,95917.06
2023-02-25T17:14:46.413Z,95924.19
2023-02-25T17:17:19.534Z,95924.63
2023-02-25T17:19:47.299Z,95933.41
2023-02-25T17:22:20.951Z,95934.94
2023-02-25T17:24:50.366Z,95951.47
2023-02-25T17:27:18.326Z,95949.56
2023-02-25T17:29:45.908Z,95958.19
2023-02-25T17:32:20.396Z,95958.44
2023-02-25T17:34:49.048Z,95956.78
2023-02-25T17:37:17.136Z,95968.00
2023-02-25T17:39:45.236Z,95980.16
2023-02-25T17:42:31.623Z,95974.03
2023-02-25T17:45:01.200Z,95988.66
2023-02-25T17:47:30.864Z,95982.78
2023-02-25T17:50:00.121Z,95991.53
2023-02-25T17:52:29.882Z,95989.72
2023-02-25T17:54:59.994Z,95992.75
2023-02-25T17:57:31.146Z,96007.50
2023-02-25T18:00:04.504Z,96004.09
2023-02-25T18:02:35.386Z,96001.34
2023-02-25T18:05:23.553Z,96009.97
2023-02-25T18:08:03.871Z,96007.53
2023-02-25T18:10:44.471Z,96004.91
2023-02-25T18:13:22.418Z,96011.47
2023-02-25T18:16:35.949Z,96017.22
2023-02-25T18:19:03.534Z,96029.81
2023-02-25T18:21:31.161Z,96027.06
2023-02-25T18:24:02.043Z,96033.63
2023-02-25T18:26:30.299Z,96038.13
2023-02-25T18:28:59.261Z,96047.31
2023-02-25T18:31:27.197Z,96034.31
2023-02-25T18:33:55.020Z,96047.16
2023-02-25T18:36:25.685Z,96048.13
2023-02-25T18:38:54.840Z,96043.47
2023-02-25T18:41:23.130Z,96037.47
2023-02-25T18:43:51.872Z,96042.78
2023-02-25T18:46:20.806Z,96051.53
2023-02-25T18:48:48.456Z,96047.28
2023-02-25T18:51:16.346Z,96051.69
2023-02-25T18:53:44.279Z,96056.72
2023-02-25T18:56:16.713Z,96061.81
2023-02-25T18:58:44.435Z,96055.66
2023-02-25T19:01:21.853Z,96060.41
2023-02-25T19:03:49.420Z,96051.66
2023-02-25T19:06:16.956Z,96060.84
2023-02-25T19:08:44.623Z,96049.78
2023-02-25T19:11:17.332Z,96052.75
2023-02-25T19:13:44.926Z,96069.44
2023-02-25T19:16:12.538Z,96071.75
2023-02-25T19:18:42.748Z,96072.03
2023-02-25T19:21:13.232Z,96070.13
2023-02-25T19:23:40.846Z,96080.81
2023-02-25T19:26:08.543Z,96088.03
2023-02-25T19:28:36.126Z,96095.03
2023-02-25T19:31:05.390Z,96093.63
2023-02-25T19:33:33.338Z,96096.78
2023-02-25T19:36:03.287Z,96101.88
2023-02-25T19:38:31.218Z,96106.25
2023-02-25T19:41:01.836Z,96112.13
2023-02-25T19:43:31.269Z,96110.19
2023-02-25T19:45:58.885Z,96104.56
2023-02-25T19:48:26.526Z,96105.25
2023-02-25T19:50:54.151Z,96110.88
2023-02-25T19:53:23.146Z,96111.84
2023-02-25T19:55:50.916Z,96109.34
2023-02-25T19:58:18.453Z,96097.75
2023-02-25T20:00:46.868Z,96101.97
2023-02-25T20:03:15.456Z,96107.44
2023-02-25T20:05:44.652Z,96110.19
2023-02-25T20:08:12.509Z,96107.31
2023-02-25T20:10:44.634Z,96111.28
2023-02-25T20:13:12.374Z,96110.19
2023-02-25T20:15:40.131Z,96115.66
2023-02-25T20:18:07.729Z,96107.31
2023-02-25T20:20:36.862Z,96109.34
2023-02-25T20:23:04.450Z,96095.25
2023-02-25T20:25:31.999Z,96114.78
2023-02-25T20:28:00.902Z,96112.19
2023-02-25T20:30:28.452Z,96114.94
2023-02-25T20:32:56.020Z,96118.22
2023-02-25T20:35:26.208Z,96116.31
2023-02-25T20:38:12.827Z,96129.16
2023-02-25T20:40:40.663Z,96125.34
2023-02-25T20:43:10.339Z,96136.53
2023-02-25T20:45:38.837Z,96130.91
2023-02-25T20:48:06.872Z,96135.03
2023-02-25T20:50:35.111Z,96138.84
2023-02-25T20:53:02.901Z,96145.97
2023-02-25T20:55:30.623Z,96139.81
2023-02-25T20:57:58.198Z,96142.28
2023-02-25T21:00:27.413Z,96147.75
2023-02-25T21:02:54.994Z,96156.34
2023-02-25T21:05:22.561Z,96153.06
2023-02-25T21:07:51.778Z,96155.38
2023-02-25T21:10:19.766Z,96153.06
2023-02-25T21:12:47.333Z,96159.63
2023-02-25T21:15:15.027Z,96156.34
2023-02-25T21:17:43.936Z,96164.03
2023-02-25T21:20:12.383Z,96160.31
2023-02-25T21:22:40.209Z,96154.97
2023-02-25T21:25:08.367Z,96165.34
2023-02-25T21:27:35.909Z,96164.13
2023-02-25T21:30:03.621Z,96160.69
2023-02-25T21:32:31.202Z,96167.78
2023-02-25T21:35:00.133Z,96162.06
2023-02-25T21:37:28.052Z,96170.28
2023-02-25T21:39:55.620Z,96175.59
2023-02-25T21:42:23.329Z,96166.84
2023-02-25T21:44:50.886Z,96178.19
2023-02-25T21:47:18.405Z,96180.78
2023-02-25T21:49:46.243Z,96161.75
2023-02-25T21:52:16.510Z,96168.31
2023-02-25T21:54:44.250Z,96176.53
2023-02-25T21:57:12.041Z,96177.75
2023-02-25T21:59:39.588Z,96175.97
2023-02-25T22:02:07.298Z,96180.34
2023-02-25T22:04:34.954Z,96172.13
2023-02-25T22:07:02.519Z,96168.97
2023-02-25T22:09:31.432Z,96176.50
2023-02-25T22:11:58.956Z,96179.78
2023-02-25T22:14:26.533Z,96190.31
2023-02-25T22:16:54.026Z,96184.91
2023-02-25T22:19:21.578Z,96184.50
2023-02-25T22:21:49.188Z,96177.81
2023-02-25T22:24:16.764Z,96179.84
2023-02-25T22:26:47.180Z,96177.38
2023-02-25T22:29:14.842Z,96181.38
2023-02-25T22:31:42.566Z,96187.31
2023-02-25T22:34:11.191Z,96187.19
2023-02-25T22:36:38.726Z,96187.97
2023-02-25T22:39:07.597Z,96182.88
2023-02-25T22:41:35.945Z,96179.66
2023-02-25T22:44:05.742Z,96178.38
2023-02-25T22:46:35.958Z,96182.06
2023-02-25T22:49:04.028Z,96190.47
2023-02-25T22:51:33.465Z,96182.78
2023-02-25T22:54:01.372Z,96187.28
2023-02-25T22:56:29.245Z,96184.94
2023-02-25T22:58:56.819Z,96182.75
2023-02-25T23:01:26.552Z,96188.03
2023-02-25T23:03:55.366Z,96185.00
2023-02-25T23:06:40.828Z,96189.72
2023-02-25T23:09:10.656Z,96179.28
2023-02-25T23:11:41.044Z,96198.81
2023-02-25T23:14:08.551Z,96195.66
2023-02-25T23:16:40.642Z,96198.25
2023-02-25T23:19:10.381Z,96197.56
2023-02-25T23:21:39.051Z,96203.88
2023-02-25T23:24:07.978Z,96198.16
2023-02-25T23:26:40.293Z,96199.78
2023-02-25T23:29:08.994Z,96203.69
2023-02-25T23:31:39.587Z,96191.56
2023-02-25T23:34:09.788Z,96191.72
2023-02-25T23:36:37.970Z,96199.59
2023-02-25T23:39:06.086Z,96199.59
2023-02-25T23:41:35.032Z,96206.19
2023-02-25T23:44:02.889Z,96193.72
2023-02-25T23:46:32.013Z,96195.63
2023-02-25T23:49:02.821Z,96197.38
2023-02-25T23:51:30.924Z,96198.78
2023-02-25T23:54:00.647Z,96203.25
2023-02-25T23:56:28.752Z,96201.75
2023-02-25T23:58:56.847Z,96203.38
